createdAt,value
2023-03-14T00:00:16.090Z,6.46
2023-03-14T00:01:23.676Z,6.46
2023-03-14T00:02:26.038Z,6.48
2023-03-14T00:03:33.498Z,6.48
2023-03-14T00:04:38.228Z,6.48
2023-03-14T00:05:42.819Z,6.47
2023-03-14T00:06:44.920Z,6.48
2023-03-14T00:07:49.507Z,6.47
2023-03-14T00:08:52.797Z,6.48
2023-03-14T00:09:57.331Z,6.48
2023-03-14T00:10:59.477Z,6.50
2023-03-14T00:12:04.198Z,6.50
2023-03-14T00:13:06.610Z,6.52
2023-03-14T00:14:11.295Z,6.54
2023-03-14T00:15:13.920Z,6.53
2023-03-14T00:16:18.641Z,6.56
2023-03-14T00:17:20.650Z,6.56
2023-03-14T00:18:25.200Z,6.58
2023-03-14T00:19:27.209Z,6.57
2023-03-14T00:20:34.319Z,6.59
2023-03-14T00:21:36.319Z,6.60
2023-03-14T00:22:41.623Z,6.60
2023-03-14T00:23:44.474Z,6.59
2023-03-14T00:24:49.052Z,6.60
2023-03-14T00:25:51.106Z,6.58
2023-03-14T00:26:55.747Z,6.59
2023-03-14T00:27:57.750Z,6.62
2023-03-14T00:29:02.321Z,6.60
2023-03-14T00:30:05.392Z,6.63
2023-03-14T00:31:12.481Z,6.63
2023-03-14T00:32:14.522Z,6.63
2023-03-14T00:33:19.078Z,6.63
2023-03-14T00:34:21.101Z,6.65
2023-03-14T00:35:25.697Z,6.64
2023-03-14T00:36:30.290Z,6.65
2023-03-14T00:37:34.943Z,6.65
2023-03-14T00:38:37.215Z,6.65
2023-03-14T00:39:41.820Z,6.67
2023-03-14T00:40:43.862Z,6.67
2023-03-14T00:41:48.633Z,6.67
2023-03-14T00:42:50.643Z,6.69
2023-03-14T00:43:55.591Z,6.67
2023-03-14T00:44:57.578Z,6.70
2023-03-14T00:46:02.592Z,6.70
2023-03-14T00:47:04.821Z,6.67
2023-03-14T00:48:09.505Z,6.65
2023-03-14T00:49:11.496Z,6.65
2023-03-14T00:50:16.145Z,6.62
2023-03-14T00:51:18.198Z,6.66
2023-03-14T00:52:25.540Z,6.66
2023-03-14T00:53:27.541Z,6.73
2023-03-14T00:54:32.376Z,6.70
2023-03-14T00:55:38.021Z,6.73
2023-03-14T00:56:42.638Z,6.74
2023-03-14T00:57:45.149Z,6.69
2023-03-14T00:58:49.806Z,6.68
2023-03-14T00:59:52.712Z,6.72
2023-03-14T01:00:57.279Z,6.71
2023-03-14T01:01:59.377Z,6.69
2023-03-14T01:03:04.232Z,6.70
2023-03-14T01:04:06.349Z,6.73
2023-03-14T01:05:12.316Z,6.69
2023-03-14T01:06:16.459Z,6.69
2023-03-14T01:07:21.130Z,6.67
2023-03-14T01:08:25.676Z,6.66
2023-03-14T01:09:30.484Z,6.65
2023-03-14T01:10:32.777Z,6.72
2023-03-14T01:11:38.841Z,6.70
2023-03-14T01:12:44.558Z,6.68
2023-03-14T01:13:49.600Z,6.69
2023-03-14T01:14:51.758Z,6.72
2023-03-14T01:15:56.447Z,6.73
2023-03-14T01:17:01.934Z,6.72
2023-03-14T01:18:07.315Z,6.72
2023-03-14T01:19:10.251Z,6.75
2023-03-14T01:20:17.512Z,6.73
2023-03-14T01:21:21.350Z,6.70
2023-03-14T01:22:25.958Z,6.68
2023-03-14T01:23:30.595Z,6.68
2023-03-14T01:24:35.158Z,6.72
2023-03-14T01:25:42.374Z,6.68
2023-03-14T01:26:46.932Z,6.68
2023-03-14T01:27:49.016Z,6.72
2023-03-14T01:28:56.171Z,6.71
2023-03-14T01:29:58.126Z,6.69
2023-03-14T01:31:06.802Z,6.69
2023-03-14T01:32:08.914Z,6.71
2023-03-14T01:33:14.378Z,6.68
2023-03-14T01:34:16.370Z,6.73
2023-03-14T01:35:21.185Z,6.71
2023-03-14T01:36:23.214Z,6.73
2023-03-14T01:37:28.012Z,6.75
2023-03-14T01:38:34.273Z,6.73
2023-03-14T01:39:39.024Z,6.69
2023-03-14T01:40:44.641Z,6.66
2023-03-14T01:41:49.229Z,6.69
2023-03-14T01:42:56.401Z,6.73
2023-03-14T01:44:01.298Z,6.69
2023-03-14T01:45:04.084Z,6.74
2023-03-14T01:46:24.760Z,6.71
2023-03-14T01:47:30.350Z,6.74
2023-03-14T01:48:36.962Z,6.73
2023-03-14T01:49:41.647Z,6.70
2023-03-14T01:50:43.771Z,6.71
2023-03-14T01:51:53.844Z,6.67
2023-03-14T01:52:56.735Z,6.69
2023-03-14T01:54:10.648Z,6.67
2023-03-14T01:55:17.913Z,6.73
2023-03-14T01:56:20.828Z,6.69
2023-03-14T01:57:29.950Z,6.66
2023-03-14T01:58:35.451Z,6.64
2023-03-14T01:59:41.909Z,6.65
2023-03-14T02:00:44.237Z,6.64
2023-03-14T02:01:51.257Z,6.64
2023-03-14T02:02:56.931Z,6.62
2023-03-14T02:04:05.220Z,6.61
2023-03-14T02:05:08.010Z,6.59
2023-03-14T02:06:13.006Z,6.60
2023-03-14T02:07:22.476Z,6.55
2023-03-14T02:08:25.458Z,6.52
2023-03-14T02:09:34.072Z,6.47
2023-03-14T02:10:40.385Z,6.44
2023-03-14T02:11:45.010Z,6.42
2023-03-14T02:12:48.448Z,6.40
2023-03-14T02:13:53.761Z,6.37
2023-03-14T02:14:55.777Z,6.40
2023-03-14T02:16:00.475Z,6.35
2023-03-14T02:17:04.514Z,6.35
2023-03-14T02:18:10.221Z,6.33
2023-03-14T02:19:15.489Z,6.29
2023-03-14T02:20:34.279Z,6.30
2023-03-14T02:21:46.528Z,6.28
2023-03-14T02:22:51.527Z,6.26
2023-03-14T02:24:04.472Z,6.24
2023-03-14T02:25:16.692Z,6.22
2023-03-14T02:26:24.008Z,6.23
2023-03-14T02:27:31.801Z,6.24
2023-03-14T02:28:33.921Z,6.22
2023-03-14T02:29:42.985Z,6.29
2023-03-14T02:30:45.457Z,6.27
2023-03-14T02:31:50.055Z,6.30
2023-03-14T02:32:58.329Z,6.32
2023-03-14T02:34:02.203Z,6.30
2023-03-14T02:35:12.412Z,6.28
2023-03-14T02:36:16.286Z,6.27
2023-03-14T02:37:23.094Z,6.29
2023-03-14T02:38:30.338Z,6.28
2023-03-14T02:39:40.554Z,6.25
2023-03-14T02:40:42.639Z,6.29
2023-03-14T02:41:50.159Z,6.25
2023-03-14T02:42:54.740Z,6.25
2023-03-14T02:44:03.354Z,6.28
2023-03-14T02:45:37.471Z,6.30
2023-03-14T02:46:42.249Z,6.26
2023-03-14T02:47:48.245Z,6.31
2023-03-14T02:48:57.210Z,6.30
2023-03-14T02:50:04.921Z,6.28
2023-03-14T02:51:11.778Z,6.25
2023-03-14T02:52:13.813Z,6.27
2023-03-14T02:53:22.520Z,6.28
2023-03-14T02:54:24.549Z,6.27
2023-03-14T02:55:29.470Z,6.22
2023-03-14T02:56:34.046Z,6.32
2023-03-14T02:57:36.243Z,6.32
2023-03-14T02:58:43.572Z,6.33
2023-03-14T02:59:45.536Z,6.38
2023-03-14T03:00:50.589Z,6.37
2023-03-14T03:01:52.606Z,6.40
2023-03-14T03:02:57.525Z,6.41
2023-03-14T03:03:59.570Z,6.45
2023-03-14T03:05:04.115Z,6.44
2023-03-14T03:06:06.901Z,6.44
2023-03-14T03:07:11.709Z,6.44
2023-03-14T03:08:13.873Z,6.43
2023-03-14T03:09:18.515Z,6.45
2023-03-14T03:10:20.629Z,6.49
2023-03-14T03:11:25.162Z,6.48
2023-03-14T03:12:27.191Z,6.49
2023-03-14T03:13:31.782Z,6.48
2023-03-14T03:14:36.520Z,6.50
2023-03-14T03:15:41.520Z,6.49
2023-03-14T03:16:43.575Z,6.48
2023-03-14T03:17:48.187Z,6.50
2023-03-14T03:18:50.147Z,6.54
2023-03-14T03:19:54.724Z,6.52
2023-03-14T03:20:59.281Z,6.49
2023-03-14T03:22:01.430Z,6.46
2023-03-14T03:23:06.042Z,6.44
2023-03-14T03:24:08.163Z,6.44
2023-03-14T03:25:13.377Z,6.41
2023-03-14T03:26:17.995Z,6.42
2023-03-14T03:27:20.015Z,6.44
2023-03-14T03:28:24.919Z,6.43
2023-03-14T03:29:27.058Z,6.44
2023-03-14T03:30:34.369Z,6.43
2023-03-14T03:31:38.182Z,6.46
2023-03-14T03:32:42.881Z,6.44
2023-03-14T03:33:44.848Z,6.41
2023-03-14T03:34:49.438Z,6.46
2023-03-14T03:35:53.406Z,6.41
2023-03-14T03:36:59.965Z,6.38
2023-03-14T03:38:02.181Z,6.37
2023-03-14T03:39:06.781Z,6.38
2023-03-14T03:40:10.498Z,6.43
2023-03-14T03:41:15.084Z,6.41
2023-03-14T03:42:17.246Z,6.41
2023-03-14T03:43:22.051Z,6.41
2023-03-14T03:44:24.020Z,6.38
2023-03-14T03:45:28.717Z,6.38
2023-03-14T03:46:33.395Z,6.43
2023-03-14T03:47:38.025Z,6.43
2023-03-14T03:48:40.173Z,6.46
2023-03-14T03:49:44.752Z,6.47
2023-03-14T03:50:47.381Z,6.46
2023-03-14T03:51:53.184Z,6.47
2023-03-14T03:52:55.296Z,6.50
2023-03-14T03:54:00.708Z,6.49
2023-03-14T03:55:02.706Z,6.43
2023-03-14T03:56:08.441Z,6.37
2023-03-14T03:57:10.616Z,6.39
2023-03-14T03:58:15.198Z,6.37
2023-03-14T03:59:17.167Z,6.44
2023-03-14T04:00:22.055Z,6.44
2023-03-14T04:01:24.121Z,6.43
2023-03-14T04:02:31.539Z,6.41
2023-03-14T04:03:33.941Z,6.45
2023-03-14T04:04:39.339Z,6.48
2023-03-14T04:05:41.727Z,6.46
2023-03-14T04:06:46.376Z,6.46
2023-03-14T04:07:48.400Z,6.46
2023-03-14T04:08:52.983Z,6.53
2023-03-14T04:09:54.972Z,6.54
2023-03-14T04:11:00.959Z,6.51
2023-03-14T04:12:03.026Z,6.49
2023-03-14T04:13:07.591Z,6.46
2023-03-14T04:14:09.898Z,6.42
2023-03-14T04:15:14.961Z,6.39
2023-03-14T04:16:19.535Z,6.41
2023-03-14T04:17:24.146Z,6.38
2023-03-14T04:18:31.587Z,6.39
2023-03-14T04:19:33.709Z,6.37
2023-03-14T04:20:38.534Z,6.41
2023-03-14T04:21:41.732Z,6.38
2023-03-14T04:22:46.356Z,6.32
2023-03-14T04:23:48.333Z,6.31
2023-03-14T04:24:53.066Z,6.32
2023-03-14T04:25:55.166Z,6.28
2023-03-14T04:26:59.774Z,6.28
2023-03-14T04:28:02.292Z,6.26
2023-03-14T04:29:06.891Z,6.29
2023-03-14T04:30:10.339Z,6.23
2023-03-14T04:31:17.633Z,6.25
2023-03-14T04:32:19.850Z,6.24
2023-03-14T04:33:24.451Z,6.25
2023-03-14T04:34:29.026Z,6.21
2023-03-14T04:35:34.782Z,6.19
2023-03-14T04:36:39.621Z,6.25
2023-03-14T04:37:44.858Z,6.26
2023-03-14T04:38:46.856Z,6.23
2023-03-14T04:39:51.397Z,6.21
2023-03-14T04:40:53.400Z,6.17
2023-03-14T04:41:58.012Z,6.17
2023-03-14T04:42:59.954Z,6.15
2023-03-14T04:44:04.626Z,6.18
2023-03-14T04:45:08.698Z,6.16
2023-03-14T04:46:13.332Z,6.14
2023-03-14T04:47:15.478Z,6.15
2023-03-14T04:48:20.050Z,6.16
2023-03-14T04:49:22.520Z,6.12
2023-03-14T04:50:29.700Z,6.17
2023-03-14T04:51:31.717Z,6.16
2023-03-14T04:52:36.276Z,6.16
2023-03-14T04:53:38.327Z,6.16
2023-03-14T04:54:42.922Z,6.18
2023-03-14T04:55:49.755Z,6.18
2023-03-14T04:56:54.349Z,6.19
2023-03-14T04:57:56.370Z,6.21
2023-03-14T04:59:00.973Z,6.19
2023-03-14T05:00:07.302Z,6.19
2023-03-14T05:01:11.888Z,6.13
2023-03-14T05:02:13.920Z,6.11
2023-03-14T05:03:19.528Z,6.14
2023-03-14T05:04:24.189Z,6.13
2023-03-14T05:05:28.762Z,6.17
2023-03-14T05:06:33.385Z,6.16
2023-03-14T05:07:35.382Z,6.13
2023-03-14T05:08:40.010Z,6.09
2023-03-14T05:09:41.995Z,6.03
2023-03-14T05:10:46.684Z,6.00
2023-03-14T05:11:48.950Z,5.98
2023-03-14T05:12:53.543Z,5.98
2023-03-14T05:13:55.573Z,6.00
2023-03-14T05:15:00.176Z,5.95
2023-03-14T05:16:07.066Z,5.96
2023-03-14T05:17:12.517Z,5.99
2023-03-14T05:18:14.554Z,5.97
2023-03-14T05:19:19.166Z,5.94
2023-03-14T05:20:21.429Z,5.96
2023-03-14T05:21:28.609Z,5.92
2023-03-14T05:22:30.665Z,5.91
2023-03-14T05:23:35.265Z,5.88
2023-03-14T05:24:37.317Z,5.90
2023-03-14T05:25:41.935Z,5.88
2023-03-14T05:26:43.920Z,5.87
2023-03-14T05:27:48.532Z,5.86
2023-03-14T05:28:50.546Z,5.83
2023-03-14T05:29:55.192Z,5.81
2023-03-14T05:30:57.223Z,5.84
2023-03-14T05:32:01.890Z,5.81
2023-03-14T05:33:03.970Z,5.84
2023-03-14T05:34:08.559Z,5.89
2023-03-14T05:35:11.210Z,5.86
2023-03-14T05:36:15.843Z,5.85
2023-03-14T05:37:20.533Z,5.85
2023-03-14T05:38:25.656Z,5.88
2023-03-14T05:39:27.736Z,5.88
2023-03-14T05:40:32.457Z,5.86
2023-03-14T05:41:34.811Z,5.83
2023-03-14T05:42:39.469Z,5.82
2023-03-14T05:43:41.464Z,5.88
2023-03-14T05:44:46.099Z,5.91
2023-03-14T05:45:48.117Z,5.93
2023-03-14T05:46:52.786Z,5.98
2023-03-14T05:47:55.010Z,5.99
2023-03-14T05:48:59.823Z,5.96
2023-03-14T05:50:01.887Z,5.97
2023-03-14T05:51:06.562Z,6.03
2023-03-14T05:52:08.627Z,6.07
2023-03-14T05:53:15.852Z,6.03
2023-03-14T05:54:17.898Z,6.13
2023-03-14T05:55:22.758Z,6.15
2023-03-14T05:56:27.327Z,6.09
2023-03-14T05:57:29.347Z,6.10
2023-03-14T05:58:34.137Z,6.05
2023-03-14T05:59:36.224Z,6.09
2023-03-14T06:00:40.871Z,6.04
2023-03-14T06:01:43.050Z,6.04
2023-03-14T06:02:47.722Z,6.01
2023-03-14T06:03:49.819Z,6.03
2023-03-14T06:04:54.634Z,6.01
2023-03-14T06:05:56.631Z,6.05
2023-03-14T06:07:01.264Z,6.01
2023-03-14T06:08:03.434Z,6.01
2023-03-14T06:09:10.591Z,5.99
2023-03-14T06:10:12.639Z,6.02
2023-03-14T06:11:17.280Z,6.04
2023-03-14T06:12:19.316Z,6.07
2023-03-14T06:13:24.476Z,6.09
2023-03-14T06:14:26.580Z,6.02
2023-03-14T06:15:31.198Z,6.08
2023-03-14T06:16:33.361Z,6.10
2023-03-14T06:17:38.024Z,6.10
2023-03-14T06:18:40.122Z,6.10
2023-03-14T06:19:44.754Z,6.14
2023-03-14T06:20:46.936Z,6.16
2023-03-14T06:21:51.511Z,6.14
2023-03-14T06:22:53.695Z,6.14
2023-03-14T06:23:58.417Z,6.17
2023-03-14T06:25:03.064Z,6.20
2023-03-14T06:26:08.154Z,6.15
2023-03-14T06:27:10.210Z,6.19
2023-03-14T06:28:14.871Z,6.17
2023-03-14T06:29:16.918Z,6.16
2023-03-14T06:30:21.624Z,6.15
2023-03-14T06:31:26.217Z,6.16
2023-03-14T06:32:30.955Z,6.18
2023-03-14T06:33:33.520Z,6.20
2023-03-14T06:34:39.522Z,6.23
2023-03-14T06:35:41.574Z,6.35
2023-03-14T06:36:46.270Z,6.36
2023-03-14T06:37:50.905Z,6.43
2023-03-14T06:38:53.083Z,6.46
2023-03-14T06:39:57.798Z,6.54
2023-03-14T06:41:11.253Z,6.61
2023-03-14T06:42:13.388Z,6.59
2023-03-14T06:43:18.027Z,6.60
2023-03-14T06:44:20.062Z,6.65
2023-03-14T06:45:25.108Z,6.66
2023-03-14T06:46:30.301Z,6.69
2023-03-14T06:47:32.404Z,6.62
2023-03-14T06:48:37.185Z,6.63
2023-03-14T06:49:41.874Z,6.66
2023-03-14T06:50:44.040Z,6.58
2023-03-14T06:51:48.716Z,6.67
2023-03-14T06:52:50.747Z,6.65
2023-03-14T06:53:55.448Z,6.61
2023-03-14T06:54:57.976Z,6.55
2023-03-14T06:56:02.701Z,6.50
2023-03-14T06:57:10.004Z,6.55
2023-03-14T06:58:14.579Z,6.58
2023-03-14T06:59:16.708Z,6.59
2023-03-14T07:00:22.239Z,6.56
2023-03-14T07:01:29.503Z,6.53
2023-03-14T07:02:42.366Z,6.54
2023-03-14T07:03:47.723Z,6.50
2023-03-14T07:04:52.316Z,6.54
2023-03-14T07:05:54.492Z,6.55
2023-03-14T07:06:59.177Z,6.54
2023-03-14T07:08:01.752Z,6.47
2023-03-14T07:09:06.612Z,6.53
2023-03-14T07:10:12.464Z,6.55
2023-03-14T07:11:14.714Z,6.58
2023-03-14T07:12:21.980Z,6.58
2023-03-14T07:13:26.687Z,6.57
2023-03-14T07:14:32.356Z,6.57
2023-03-14T07:15:39.872Z,6.50
2023-03-14T07:16:44.501Z,6.52
2023-03-14T07:17:49.193Z,6.55
2023-03-14T07:18:53.945Z,6.60
2023-03-14T07:19:56.004Z,6.63
2023-03-14T07:21:00.687Z,6.68
2023-03-14T07:22:05.286Z,6.65
2023-03-14T07:23:07.633Z,6.78
2023-03-14T07:24:12.330Z,6.88
2023-03-14T07:25:14.497Z,6.94
2023-03-14T07:26:19.178Z,7.09
2023-03-14T07:27:23.921Z,7.17
2023-03-14T07:28:28.630Z,7.24
2023-03-14T07:29:33.253Z,7.32
2023-03-14T07:30:35.405Z,7.36
2023-03-14T07:31:40.039Z,7.34
2023-03-14T07:32:42.219Z,7.44
2023-03-14T07:33:46.844Z,7.37
2023-03-14T07:34:48.898Z,7.33
2023-03-14T07:35:54.122Z,7.36
2023-03-14T07:36:56.155Z,7.33
2023-03-14T07:38:00.817Z,7.34
2023-03-14T07:39:02.846Z,7.22
2023-03-14T07:40:11.684Z,7.20
2023-03-14T07:41:16.642Z,7.24
2023-03-14T07:42:21.216Z,7.29
2023-03-14T07:43:25.916Z,7.29
2023-03-14T07:44:30.869Z,7.35
2023-03-14T07:45:32.928Z,7.36
2023-03-14T07:46:37.724Z,7.41
2023-03-14T07:47:39.790Z,7.38
2023-03-14T07:48:44.577Z,7.44
2023-03-14T07:49:46.552Z,7.45
2023-03-14T07:50:52.593Z,7.51
2023-03-14T07:51:57.422Z,7.53
2023-03-14T07:52:59.440Z,7.58
2023-03-14T07:54:04.446Z,7.63
2023-03-14T07:55:07.547Z,7.75
2023-03-14T07:56:12.817Z,7.78
2023-03-14T07:57:17.794Z,7.84
2023-03-14T07:58:20.261Z,7.90
2023-03-14T07:59:27.718Z,7.95
2023-03-14T08:00:32.308Z,7.99
2023-03-14T08:01:37.205Z,8.08
2023-03-14T08:02:39.246Z,8.14
2023-03-14T08:03:44.021Z,8.21
2023-03-14T08:04:48.695Z,8.21
2023-03-14T08:05:54.375Z,8.24
2023-03-14T08:06:58.981Z,8.26
2023-03-14T08:08:01.045Z,8.33
2023-03-14T08:09:05.762Z,8.22
2023-03-14T08:10:09.699Z,8.38
2023-03-14T08:11:14.424Z,8.50
2023-03-14T08:12:19.113Z,8.66
2023-03-14T08:13:22.485Z,8.63
2023-03-14T08:14:30.669Z,8.68
2023-03-14T08:15:35.717Z,8.73
2023-03-14T08:16:37.933Z,8.73
2023-03-14T08:17:42.611Z,8.60
2023-03-14T08:18:44.636Z,8.77
2023-03-14T08:19:49.252Z,8.92
2023-03-14T08:20:53.832Z,9.07
2023-03-14T08:21:56.120Z,9.23
2023-03-14T08:23:01.734Z,9.34
2023-03-14T08:24:07.270Z,9.39
2023-03-14T08:25:12.413Z,9.50
2023-03-14T08:26:16.989Z,9.35
2023-03-14T08:27:21.707Z,9.43
2023-03-14T08:28:23.853Z,9.42
2023-03-14T08:29:31.160Z,9.48
2023-03-14T08:30:35.780Z,9.62
2023-03-14T08:31:40.554Z,9.49
2023-03-14T08:32:45.295Z,9.51
2023-03-14T08:33:50.009Z,9.70
2023-03-14T08:34:54.650Z,9.86
2023-03-14T08:36:00.879Z,9.78
2023-03-14T08:37:08.640Z,9.71
2023-03-14T08:38:15.670Z,9.39
2023-03-14T08:39:17.873Z,9.41
2023-03-14T08:40:23.028Z,9.40
2023-03-14T08:41:25.219Z,9.32
2023-03-14T08:42:30.059Z,9.37
2023-03-14T08:43:34.863Z,9.31
2023-03-14T08:44:42.849Z,9.17
2023-03-14T08:45:47.566Z,9.30
2023-03-14T08:46:49.775Z,9.35
2023-03-14T08:47:54.540Z,9.44
2023-03-14T08:48:56.570Z,9.35
2023-03-14T08:50:01.391Z,9.53
2023-03-14T08:51:11.681Z,9.63
2023-03-14T08:52:13.707Z,9.59
2023-03-14T08:53:19.254Z,9.47
2023-03-14T08:54:23.799Z,9.51
2023-03-14T08:55:28.428Z,9.54
2023-03-14T08:56:30.530Z,9.48
2023-03-14T08:57:35.154Z,9.38
2023-03-14T08:58:39.978Z,9.54
2023-03-14T08:59:47.291Z,9.51
2023-03-14T09:00:52.044Z,9.61
2023-03-14T09:01:57.145Z,9.56
2023-03-14T09:03:01.864Z,9.90
2023-03-14T09:04:04.260Z,10.03
2023-03-14T09:05:09.845Z,10.02
2023-03-14T09:06:11.907Z,10.06
2023-03-14T09:07:16.561Z,10.24
2023-03-14T09:08:21.445Z,10.17
2023-03-14T09:09:23.551Z,10.29
2023-03-14T09:10:28.210Z,10.69
2023-03-14T09:11:30.486Z,10.70
2023-03-14T09:12:35.098Z,10.52
2023-03-14T09:13:40.044Z,10.65
2023-03-14T09:14:47.380Z,10.51
2023-03-14T09:15:52.170Z,10.59
2023-03-14T09:16:57.459Z,10.27
2023-03-14T09:18:00.175Z,10.18
2023-03-14T09:19:04.846Z,10.20
2023-03-14T09:20:08.103Z,10.30
2023-03-14T09:21:12.814Z,10.34
2023-03-14T09:22:14.893Z,10.19
2023-03-14T09:23:19.744Z,10.25
2023-03-14T09:24:22.518Z,10.18
2023-03-14T09:25:27.302Z,10.46
2023-03-14T09:26:32.044Z,10.51
2023-03-14T09:27:34.098Z,10.76
2023-03-14T09:28:38.728Z,11.00
2023-03-14T09:29:43.437Z,10.94
2023-03-14T09:30:48.018Z,10.82
2023-03-14T09:31:53.167Z,11.10
2023-03-14T09:32:58.235Z,11.67
2023-03-14T09:34:00.336Z,11.68
2023-03-14T09:35:04.916Z,11.63
2023-03-14T09:36:08.812Z,11.39
2023-03-14T09:37:13.494Z,11.21
2023-03-14T09:38:15.495Z,11.15
2023-03-14T09:39:20.368Z,10.98
2023-03-14T09:40:24.853Z,11.06
2023-03-14T09:41:32.452Z,11.16
2023-03-14T09:42:34.557Z,11.05
2023-03-14T09:43:40.214Z,10.71
2023-03-14T09:44:52.405Z,10.92
2023-03-14T09:46:03.377Z,10.41
2023-03-14T09:47:10.485Z,10.20
2023-03-14T09:48:17.636Z,10.15
2023-03-14T09:49:25.493Z,10.06
2023-03-14T09:50:36.647Z,9.99
2023-03-14T09:51:41.555Z,10.09
2023-03-14T09:52:50.034Z,10.18
2023-03-14T09:53:55.563Z,10.23
2023-03-14T09:55:01.046Z,10.20
2023-03-14T09:56:05.982Z,10.02
2023-03-14T09:57:17.670Z,10.18
2023-03-14T09:58:23.327Z,10.07
2023-03-14T09:59:27.364Z,9.98
2023-03-14T10:00:34.303Z,10.02
2023-03-14T10:01:41.906Z,10.13
2023-03-14T10:02:51.184Z,10.22
2023-03-14T10:03:58.648Z,10.48
2023-03-14T10:05:06.840Z,10.39
2023-03-14T10:06:15.481Z,10.41
2023-03-14T10:07:23.108Z,10.57
2023-03-14T10:08:25.433Z,10.61
2023-03-14T10:09:30.214Z,10.64
2023-03-14T10:10:36.040Z,10.72
2023-03-14T10:11:40.411Z,10.62
2023-03-14T10:12:45.727Z,10.83
2023-03-14T10:14:06.568Z,11.08
2023-03-14T10:15:19.388Z,11.11
2023-03-14T10:16:30.401Z,11.10
2023-03-14T10:17:42.673Z,10.99
2023-03-14T10:18:46.740Z,11.11
2023-03-14T10:19:59.484Z,10.80
2023-03-14T10:21:08.098Z,10.75
2023-03-14T10:22:18.814Z,10.68
2023-03-14T10:23:30.797Z,10.85
2023-03-14T10:24:37.607Z,10.63
2023-03-14T10:25:42.497Z,10.46
2023-03-14T10:26:47.135Z,10.40
2023-03-14T10:27:51.788Z,10.36
2023-03-14T10:28:55.268Z,10.30
2023-03-14T10:30:01.684Z,10.34
2023-03-14T10:31:03.943Z,10.25
2023-03-14T10:32:10.581Z,10.34
2023-03-14T10:33:24.875Z,10.37
2023-03-14T10:34:32.111Z,10.49
2023-03-14T10:35:36.251Z,10.47
2023-03-14T10:36:41.148Z,10.60
2023-03-14T10:37:55.466Z,10.66
2023-03-14T10:39:08.392Z,10.43
2023-03-14T10:40:18.026Z,10.47
2023-03-14T10:41:28.985Z,10.36
2023-03-14T10:42:32.965Z,10.37
2023-03-14T10:43:40.058Z,10.39
2023-03-14T10:44:42.965Z,10.45
2023-03-14T10:45:52.431Z,10.34
2023-03-14T10:47:02.512Z,10.50
2023-03-14T10:48:25.418Z,10.78
2023-03-14T10:49:30.282Z,10.76
2023-03-14T10:50:35.586Z,11.10
2023-03-14T10:51:40.302Z,11.10
2023-03-14T10:53:02.131Z,11.22
2023-03-14T10:54:17.142Z,11.56
2023-03-14T10:55:19.444Z,11.79
2023-03-14T10:56:25.671Z,11.40
2023-03-14T10:57:31.113Z,11.29
2023-03-14T10:58:40.360Z,11.18
2023-03-14T10:59:47.119Z,11.52
2023-03-14T11:00:57.767Z,11.63
2023-03-14T11:02:08.376Z,11.33
2023-03-14T11:03:15.776Z,11.22
2023-03-14T11:04:38.390Z,11.40
2023-03-14T11:05:50.350Z,11.19
2023-03-14T11:07:03.871Z,11.19
2023-03-14T11:08:12.586Z,11.16
2023-03-14T11:09:27.782Z,10.98
2023-03-14T11:10:36.541Z,11.15
2023-03-14T11:11:45.401Z,11.01
2023-03-14T11:13:03.385Z,10.71
2023-03-14T11:14:19.920Z,10.43
2023-03-14T11:15:31.402Z,10.57
2023-03-14T11:16:47.383Z,10.52
2023-03-14T11:18:07.608Z,10.44
2023-03-14T11:19:40.190Z,10.17
2023-03-14T11:20:50.677Z,9.93
2023-03-14T11:22:01.662Z,9.85
2023-03-14T11:23:15.756Z,9.71
2023-03-14T11:24:28.526Z,9.75
2023-03-14T11:25:39.851Z,9.83
2023-03-14T11:26:50.204Z,9.79
2023-03-14T11:28:02.374Z,9.78
2023-03-14T11:29:19.532Z,9.82
2023-03-14T11:30:30.683Z,9.56
2023-03-14T11:31:39.361Z,9.36
2023-03-14T11:32:48.750Z,9.26
2023-03-14T11:33:57.571Z,9.17
2023-03-14T11:35:08.992Z,8.80
2023-03-14T11:36:16.399Z,8.66
2023-03-14T11:37:29.225Z,8.53
2023-03-14T11:38:41.341Z,8.51
2023-03-14T11:39:51.386Z,8.36
2023-03-14T11:40:58.793Z,8.32
2023-03-14T11:42:04.705Z,8.26
2023-03-14T11:43:17.683Z,8.22
2023-03-14T11:44:26.359Z,8.13
2023-03-14T11:45:34.541Z,8.10
2023-03-14T11:46:43.522Z,8.11
2023-03-14T11:47:50.049Z,8.00
2023-03-14T11:49:02.992Z,8.02
2023-03-14T11:50:17.885Z,7.98
2023-03-14T11:51:27.637Z,7.94
2023-03-14T11:52:33.156Z,7.89
2023-03-14T11:53:49.697Z,7.90
2023-03-14T11:54:59.113Z,7.84
2023-03-14T11:56:01.670Z,7.83
2023-03-14T11:57:09.054Z,7.73
2023-03-14T11:58:20.110Z,7.69
2023-03-14T11:59:26.023Z,7.69
2023-03-14T12:00:31.674Z,7.68
2023-03-14T12:01:48.720Z,7.61
2023-03-14T12:03:02.051Z,7.52
2023-03-14T12:04:11.906Z,7.45
2023-03-14T12:05:38.496Z,7.40
2023-03-14T12:06:52.064Z,7.33
2023-03-14T12:08:21.197Z,7.26
2023-03-14T12:09:26.602Z,7.23
2023-03-14T12:10:29.999Z,7.25
2023-03-14T12:11:42.294Z,7.18
2023-03-14T12:12:44.717Z,7.17
2023-03-14T12:13:53.092Z,7.17
2023-03-14T12:15:01.407Z,7.14
2023-03-14T12:16:08.051Z,7.14
2023-03-14T12:17:23.847Z,7.09
2023-03-14T12:18:29.481Z,7.09
2023-03-14T12:20:08.256Z,7.08
2023-03-14T12:21:16.854Z,7.08
2023-03-14T12:22:32.827Z,7.09
2023-03-14T12:23:42.236Z,7.07
2023-03-14T12:24:52.914Z,7.11
2023-03-14T12:26:20.099Z,7.05
2023-03-14T12:27:49.766Z,7.01
2023-03-14T12:28:56.534Z,6.99
2023-03-14T12:30:04.668Z,6.93
2023-03-14T12:31:40.869Z,6.98
2023-03-14T12:32:45.582Z,6.94
2023-03-14T12:34:05.465Z,6.98
2023-03-14T12:35:37.847Z,6.98
2023-03-14T12:37:05.478Z,6.95
2023-03-14T12:38:14.704Z,6.99
2023-03-14T12:39:25.969Z,6.97
2023-03-14T12:40:35.451Z,6.99
2023-03-14T12:41:47.554Z,6.98
2023-03-14T12:43:00.470Z,7.00
2023-03-14T12:44:35.048Z,6.99
2023-03-14T12:45:40.586Z,6.95
2023-03-14T12:46:45.484Z,6.98
2023-03-14T12:48:14.752Z,7.01
2023-03-14T12:49:19.367Z,7.04
2023-03-14T12:50:32.828Z,7.03
2023-03-14T12:51:39.791Z,6.99
2023-03-14T12:52:58.590Z,7.01
2023-03-14T12:54:23.198Z,7.00
2023-03-14T12:55:34.933Z,6.95
2023-03-14T12:57:05.700Z,6.90
2023-03-14T12:58:16.573Z,6.97
2023-03-14T12:59:41.773Z,6.95
2023-03-14T13:00:44.197Z,7.02
2023-03-14T13:01:58.653Z,7.10
2023-03-14T13:03:18.125Z,7.22
2023-03-14T13:04:29.204Z,7.48
2023-03-14T13:05:38.047Z,7.76
2023-03-14T13:06:49.113Z,8.10
2023-03-14T13:08:10.644Z,8.44
2023-03-14T13:09:37.402Z,8.72
2023-03-14T13:10:51.753Z,8.73
2023-03-14T13:11:55.157Z,8.43
2023-03-14T13:13:05.398Z,8.31
2023-03-14T13:14:11.542Z,8.38
2023-03-14T13:15:23.106Z,8.02
2023-03-14T13:16:27.887Z,7.93
2023-03-14T13:17:36.939Z,7.77
2023-03-14T13:18:44.765Z,7.70
2023-03-14T13:19:53.472Z,7.61
2023-03-14T13:21:02.560Z,7.70
2023-03-14T13:22:07.337Z,7.65
2023-03-14T13:23:26.547Z,7.34
2023-03-14T13:24:29.427Z,7.11
2023-03-14T13:25:37.159Z,7.21
2023-03-14T13:26:45.397Z,6.75
2023-03-14T13:27:48.557Z,6.94
2023-03-14T13:28:53.385Z,6.79
2023-03-14T13:29:55.684Z,6.65
2023-03-14T13:31:03.012Z,6.93
2023-03-14T13:32:18.707Z,7.19
2023-03-14T13:33:25.642Z,7.24
2023-03-14T13:34:31.207Z,7.60
2023-03-14T13:35:44.522Z,8.08
2023-03-14T13:36:50.155Z,8.88
2023-03-14T13:38:11.052Z,9.83
2023-03-14T13:39:25.735Z,10.36
2023-03-14T13:40:32.201Z,10.70
2023-03-14T13:41:37.099Z,10.97
2023-03-14T13:42:39.209Z,10.50
2023-03-14T13:43:47.178Z,10.09
2023-03-14T13:44:49.320Z,10.34
2023-03-14T13:45:56.696Z,10.15
2023-03-14T13:47:02.820Z,10.18
2023-03-14T13:48:05.433Z,10.50
2023-03-14T13:49:15.441Z,9.96
2023-03-14T13:50:20.908Z,10.19
2023-03-14T13:51:28.773Z,9.94
2023-03-14T13:52:32.638Z,10.24
2023-03-14T13:53:47.267Z,10.42
2023-03-14T13:54:56.999Z,10.49
2023-03-14T13:56:06.148Z,11.21
2023-03-14T13:57:08.645Z,10.07
2023-03-14T13:58:24.420Z,9.69
2023-03-14T13:59:31.301Z,9.46
2023-03-14T14:00:36.259Z,9.64
2023-03-14T14:01:42.190Z,9.27
2023-03-14T14:02:44.275Z,9.08
2023-03-14T14:03:52.732Z,9.39
2023-03-14T14:04:54.934Z,9.04
2023-03-14T14:06:01.685Z,9.18
2023-03-14T14:07:10.944Z,9.39
2023-03-14T14:08:16.153Z,9.81
2023-03-14T14:09:24.292Z,10.12
2023-03-14T14:10:30.771Z,9.73
2023-03-14T14:11:53.780Z,9.62
2023-03-14T14:13:02.496Z,9.21
2023-03-14T14:14:09.993Z,8.35
2023-03-14T14:15:20.582Z,8.20
2023-03-14T14:16:29.011Z,8.71
2023-03-14T14:17:36.567Z,8.84
2023-03-14T14:18:39.439Z,7.81
2023-03-14T14:19:45.423Z,7.78
2023-03-14T14:20:49.162Z,7.88
2023-03-14T14:21:54.273Z,8.03
2023-03-14T14:22:56.624Z,8.28
2023-03-14T14:24:01.981Z,8.41
2023-03-14T14:25:09.523Z,8.61
2023-03-14T14:26:21.217Z,8.68
2023-03-14T14:27:32.805Z,8.57
2023-03-14T14:28:39.501Z,8.34
2023-03-14T14:29:41.817Z,8.21
2023-03-14T14:30:46.580Z,8.03
2023-03-14T14:31:50.280Z,8.05
2023-03-14T14:32:55.897Z,7.28
2023-03-14T14:34:02.253Z,7.03
2023-03-14T14:35:07.831Z,6.88
2023-03-14T14:36:17.723Z,6.73